createdAt,value
2022-12-12T00:01:23.063Z,23.08
2022-12-12T00:03:53.809Z,22.20
2022-12-12T00:06:22.787Z,22.50
2022-12-12T00:08:51.001Z,22.17
2022-12-12T00:11:19.547Z,22.77
2022-12-12T00:13:48.199Z,20.40
2022-12-12T00:16:16.746Z,24.08
2022-12-12T00:18:45.302Z,22.70
2022-12-12T00:21:16.608Z,22.73
2022-12-12T00:23:45.416Z,20.60
2022-12-12T00:26:20.539Z,22.45
2022-12-12T00:28:49.155Z,22.00
2022-12-12T00:31:17.758Z,22.02
2022-12-12T00:33:48.002Z,22.63
2022-12-12T00:36:17.431Z,19.20
2022-12-12T00:38:45.927Z,19.85
2022-12-12T00:41:14.241Z,18.98
2022-12-12T00:43:42.627Z,19.67
2022-12-12T00:46:13.979Z,19.48
2022-12-12T00:48:42.655Z,16.80
2022-12-12T00:51:12.315Z,19.02
2022-12-12T00:53:41.907Z,17.50
2022-12-12T00:56:09.836Z,19.00
2022-12-12T00:58:37.991Z,20.48
2022-12-12T01:01:09.835Z,20.17
2022-12-12T01:03:39.884Z,19.13
2022-12-12T01:06:08.728Z,18.90
2022-12-12T01:08:36.755Z,19.85
2022-12-12T01:11:08.291Z,19.27
2022-12-12T01:13:37.152Z,19.23
2022-12-12T01:16:05.384Z,19.85
2022-12-12T01:18:33.864Z,18.80
2022-12-12T01:21:02.007Z,16.45
2022-12-12T01:23:30.252Z,18.27
2022-12-12T01:26:02.079Z,18.25
2022-12-12T01:30:59.308Z,17.00
2022-12-12T01:33:27.460Z,18.27
2022-12-12T01:35:55.389Z,17.50
2022-12-12T01:38:24.593Z,18.50
2022-12-12T01:40:54.044Z,16.70
2022-12-12T01:43:23.538Z,18.40
2022-12-12T01:46:23.969Z,17.77
2022-12-12T01:48:57.587Z,18.40
2022-12-12T01:51:28.356Z,18.08
2022-12-12T01:54:03.306Z,18.20
2022-12-12T01:56:32.931Z,18.52
2022-12-12T01:59:03.617Z,17.08
2022-12-12T02:01:32.588Z,16.00
2022-12-12T02:04:03.260Z,18.35
2022-12-12T02:06:31.897Z,18.25
2022-12-12T02:09:03.441Z,16.52
2022-12-12T02:11:33.380Z,16.00
2022-12-12T02:14:01.739Z,16.55
2022-12-12T02:16:42.800Z,17.88
2022-12-12T02:19:31.144Z,17.67
2022-12-12T02:22:03.500Z,16.52
2022-12-12T02:24:59.485Z,14.32
2022-12-12T02:27:51.986Z,16.50
2022-12-12T02:30:25.164Z,17.08
2022-12-12T02:33:11.756Z,16.27
2022-12-12T02:35:53.406Z,19.23
2022-12-12T02:38:28.563Z,16.33
2022-12-12T02:41:08.770Z,16.92
2022-12-12T02:43:42.671Z,18.45
2022-12-12T02:46:17.696Z,17.20
2022-12-12T02:48:52.469Z,17.38
2022-12-12T02:51:21.089Z,16.45
2022-12-12T02:53:48.887Z,15.35
2022-12-12T02:56:45.645Z,15.95
2022-12-12T02:59:17.625Z,15.65
2022-12-12T03:01:57.829Z,16.42
2022-12-12T03:04:51.135Z,14.73
2022-12-12T03:07:49.118Z,15.25
2022-12-12T03:10:30.728Z,15.30
2022-12-12T03:13:09.710Z,14.43
2022-12-12T03:15:49.859Z,15.60
2022-12-12T03:18:25.543Z,14.45
2022-12-12T03:21:03.488Z,13.55
2022-12-12T03:23:37.943Z,15.07
2022-12-12T03:26:13.139Z,12.95
2022-12-12T03:28:47.667Z,14.00
2022-12-12T03:31:18.192Z,16.38
2022-12-12T03:33:49.495Z,14.93
2022-12-12T03:36:24.580Z,11.68
2022-12-12T03:38:59.528Z,13.32
2022-12-12T03:41:32.643Z,14.50
2022-12-12T03:44:06.775Z,14.95
2022-12-12T03:46:39.748Z,13.18
2022-12-12T03:49:14.617Z,16.25
2022-12-12T03:51:48.547Z,14.65
2022-12-12T03:54:23.320Z,11.02
2022-12-12T03:56:58.187Z,13.75
2022-12-12T03:59:33.533Z,12.68
2022-12-12T04:02:07.134Z,12.57
2022-12-12T04:04:40.245Z,11.73
2022-12-12T04:07:15.610Z,13.07
2022-12-12T04:10:01.606Z,12.35
2022-12-12T04:12:53.371Z,13.80
2022-12-12T04:15:40.675Z,15.52
2022-12-12T04:18:17.186Z,15.07
2022-12-12T04:21:07.955Z,13.65
2022-12-12T04:23:49.808Z,15.02
2022-12-12T04:26:42.219Z,14.25
2022-12-12T04:29:23.708Z,14.13
2022-12-12T04:31:57.808Z,11.07
2022-12-12T04:34:34.955Z,14.23
2022-12-12T04:37:04.936Z,14.30
2022-12-12T04:39:37.070Z,13.40
2022-12-12T04:42:08.832Z,14.13
2022-12-12T04:44:40.926Z,13.40
2022-12-12T04:47:11.205Z,15.40
2022-12-12T04:49:42.571Z,13.32
2022-12-12T04:52:13.418Z,13.50
2022-12-12T04:54:48.311Z,14.75
2022-12-12T04:57:22.379Z,17.08
2022-12-12T04:59:50.805Z,13.63
2022-12-12T05:02:31.854Z,16.70
2022-12-12T05:05:03.441Z,16.20
2022-12-12T05:07:40.026Z,13.75
2022-12-12T05:10:13.742Z,15.10
2022-12-12T05:12:44.374Z,16.92
2022-12-12T05:15:12.911Z,15.07
2022-12-12T05:17:44.171Z,13.68
2022-12-12T05:20:12.304Z,14.93
2022-12-12T05:22:40.612Z,14.63
2022-12-12T05:25:10.980Z,16.35
2022-12-12T05:27:39.179Z,17.27
2022-12-12T05:30:08.375Z,16.75
2022-12-12T05:32:36.619Z,16.08
2022-12-12T05:35:04.837Z,14.40
2022-12-12T05:37:33.022Z,16.85
2022-12-12T05:40:00.892Z,14.82
2022-12-12T05:42:30.677Z,16.65
2022-12-12T05:44:58.591Z,16.70
2022-12-12T05:47:26.966Z,15.13
2022-12-12T05:49:55.235Z,15.40
2022-12-12T05:52:23.310Z,16.95
2022-12-12T05:54:51.320Z,16.70
2022-12-12T05:57:19.385Z,15.90
2022-12-12T05:59:48.858Z,16.92
2022-12-12T06:02:17.682Z,17.88
2022-12-12T06:04:45.608Z,18.40
2022-12-12T06:07:14.032Z,16.85
2022-12-12T06:09:41.818Z,18.73
2022-12-12T06:12:09.900Z,17.15
2022-12-12T06:14:37.837Z,17.27
2022-12-12T06:17:07.175Z,18.58
2022-12-12T06:19:35.151Z,19.20
2022-12-12T06:22:03.451Z,19.02
2022-12-12T06:24:31.199Z,17.13
2022-12-12T06:26:59.207Z,20.42
2022-12-12T06:29:27.036Z,18.45
2022-12-12T06:31:55.438Z,20.67
2022-12-12T06:34:24.692Z,22.95
2022-12-12T06:36:52.843Z,28.90
2022-12-12T06:39:20.635Z,28.30
2022-12-12T06:41:48.757Z,34.08
2022-12-12T06:44:16.790Z,20.88
2022-12-12T06:46:44.842Z,24.33
2022-12-12T06:49:12.786Z,28.20
2022-12-12T06:51:44.529Z,21.05
2022-12-12T06:54:12.811Z,23.30
2022-12-12T06:56:47.808Z,27.80
2022-12-12T06:59:16.746Z,22.80
2022-12-12T07:01:45.155Z,21.27
2022-12-12T07:04:14.426Z,19.25
2022-12-12T07:06:44.019Z,21.70
2022-12-12T07:09:12.036Z,22.65
2022-12-12T07:11:41.633Z,81.63
2022-12-12T07:14:11.196Z,40.92
2022-12-12T07:16:39.723Z,21.85
2022-12-12T07:19:07.673Z,24.83
2022-12-12T07:21:36.231Z,23.42
2022-12-12T07:24:05.768Z,22.48
2022-12-12T07:26:33.864Z,22.77
2022-12-12T07:29:03.708Z,22.80
2022-12-12T07:31:32.293Z,20.70
2022-12-12T07:34:00.127Z,22.10
2022-12-12T07:36:28.257Z,21.75
2022-12-12T07:38:56.138Z,38.15
2022-12-12T07:41:25.769Z,44.67
2022-12-12T07:43:53.740Z,23.10
2022-12-12T07:46:24.547Z,20.92
2022-12-12T07:48:53.595Z,17.88
2022-12-12T07:51:22.554Z,20.67
2022-12-12T07:53:50.564Z,32.35
2022-12-12T07:56:19.611Z,25.10
2022-12-12T07:58:49.326Z,21.05
2022-12-12T08:01:19.920Z,20.33
2022-12-12T08:03:48.856Z,21.77
2022-12-12T08:06:18.142Z,20.23
2022-12-12T08:08:47.256Z,19.63
2022-12-12T08:11:17.895Z,21.60
2022-12-12T08:13:46.343Z,18.67
2022-12-12T08:16:18.399Z,20.38
2022-12-12T08:18:46.936Z,18.65
2022-12-12T08:21:21.481Z,21.73
2022-12-12T08:23:55.999Z,17.88
2022-12-12T08:26:24.251Z,19.85
2022-12-12T08:28:52.009Z,20.25
2022-12-12T08:31:22.979Z,18.88
2022-12-12T08:33:51.527Z,21.05
2022-12-12T08:36:21.969Z,20.67
2022-12-12T08:38:50.443Z,19.33
2022-12-12T08:41:19.176Z,19.98
2022-12-12T08:43:47.149Z,20.17
2022-12-12T08:46:18.153Z,21.73
2022-12-12T08:48:48.381Z,19.52
2022-12-12T08:51:18.318Z,19.50
2022-12-12T08:53:46.943Z,21.73
2022-12-12T08:56:15.838Z,19.75
2022-12-12T08:58:43.854Z,20.98
2022-12-12T09:01:12.526Z,19.42
2022-12-12T09:03:40.666Z,20.33
2022-12-12T09:06:11.199Z,22.02
2022-12-12T09:08:39.760Z,21.45
2022-12-12T09:11:09.437Z,19.98
2022-12-12T09:13:38.054Z,18.95
2022-12-12T09:16:07.179Z,20.50
2022-12-12T09:18:36.060Z,20.80
2022-12-12T09:21:04.924Z,19.63
2022-12-12T09:23:34.759Z,22.10
2022-12-12T09:26:05.490Z,20.70
2022-12-12T09:28:33.437Z,21.63
2022-12-12T09:31:01.742Z,20.23
2022-12-12T09:33:29.521Z,20.85
2022-12-12T09:35:59.548Z,19.48
2022-12-12T09:38:28.221Z,21.17
2022-12-12T09:41:00.254Z,19.83
2022-12-12T09:43:32.126Z,20.95
2022-12-12T09:46:01.669Z,19.05
2022-12-12T09:48:39.266Z,18.98
2022-12-12T09:51:07.729Z,18.92
2022-12-12T09:53:35.688Z,19.65
2022-12-12T09:56:11.770Z,18.00
2022-12-12T09:58:49.051Z,21.17
2022-12-12T10:01:26.060Z,18.67
2022-12-12T10:04:10.347Z,20.73
2022-12-12T10:07:25.103Z,19.58
2022-12-12T10:10:02.948Z,19.20
2022-12-12T10:12:32.808Z,19.85
2022-12-12T10:15:04.625Z,21.02
2022-12-12T10:17:36.969Z,20.30
2022-12-12T10:20:09.126Z,20.13
2022-12-12T10:22:45.839Z,17.55
2022-12-12T10:25:21.641Z,20.13
2022-12-12T10:27:52.078Z,19.70
2022-12-12T10:30:22.166Z,20.20
2022-12-12T10:33:04.029Z,20.00
2022-12-12T10:35:42.802Z,20.80
2022-12-12T10:38:29.611Z,18.95
2022-12-12T10:41:05.853Z,17.50
2022-12-12T10:43:41.724Z,21.63
2022-12-12T10:46:29.054Z,18.67
2022-12-12T10:48:57.604Z,19.27
2022-12-12T10:51:28.555Z,20.17
2022-12-12T10:53:57.881Z,18.83
2022-12-12T10:56:28.945Z,19.88
2022-12-12T10:58:58.678Z,20.75
2022-12-12T11:02:00.711Z,20.98
2022-12-12T11:04:17.204Z,18.13
2022-12-12T11:06:49.432Z,19.00
2022-12-12T11:09:20.934Z,18.60
2022-12-12T11:11:59.705Z,19.38
2022-12-12T11:14:33.688Z,20.08
2022-12-12T11:17:02.134Z,18.60
2022-12-12T11:19:39.161Z,20.33
2022-12-12T11:22:07.619Z,19.33
2022-12-12T11:24:43.405Z,16.15
2022-12-12T11:27:20.955Z,25.63
2022-12-12T11:29:51.449Z,23.05
2022-12-12T11:32:23.270Z,25.60
2022-12-12T11:34:54.947Z,22.50
2022-12-12T11:37:26.689Z,20.58
2022-12-12T11:39:57.803Z,20.93
2022-12-12T11:42:29.293Z,25.07
2022-12-12T11:45:03.216Z,21.58
2022-12-12T11:47:38.342Z,20.13
2022-12-12T11:50:21.729Z,19.77
2022-12-12T11:52:52.261Z,24.88
2022-12-12T11:55:31.459Z,25.70
2022-12-12T11:58:16.884Z,27.92
2022-12-12T12:00:50.227Z,22.30
2022-12-12T12:03:28.024Z,23.92
2022-12-12T12:06:07.947Z,26.77
2022-12-12T12:08:48.413Z,22.10
2022-12-12T12:11:28.785Z,20.77
2022-12-12T12:14:15.821Z,18.67
2022-12-12T12:16:52.612Z,17.13
2022-12-12T12:19:29.031Z,18.08
2022-12-12T12:22:06.531Z,21.27
2022-12-12T12:25:10.909Z,17.70
2022-12-12T12:27:48.240Z,18.85
2022-12-12T12:30:23.667Z,18.45
2022-12-12T12:33:03.624Z,19.02
2022-12-12T12:35:34.026Z,24.38
2022-12-12T12:38:17.371Z,20.80
2022-12-12T12:41:02.819Z,20.23
2022-12-12T12:43:51.539Z,21.13
2022-12-12T12:46:28.897Z,21.98
2022-12-12T12:49:02.030Z,18.08
2022-12-12T12:51:34.233Z,18.88
2022-12-12T12:54:05.716Z,14.93
2022-12-12T12:56:43.686Z,15.65
2022-12-12T12:59:18.270Z,16.77
2022-12-12T13:01:50.463Z,18.52
2022-12-12T13:04:21.991Z,17.40
2022-12-12T13:06:55.766Z,15.52
2022-12-12T13:09:33.335Z,16.05
2022-12-12T13:12:06.529Z,16.33
2022-12-12T13:14:45.713Z,18.75
2022-12-12T13:17:19.294Z,17.15
2022-12-12T13:19:50.853Z,17.67
2022-12-12T13:22:27.436Z,19.05
2022-12-12T13:25:00.458Z,19.73
2022-12-12T13:27:34.567Z,18.63
2022-12-12T13:30:11.775Z,18.30
2022-12-12T13:33:00.759Z,17.50
2022-12-12T13:35:32.575Z,17.90
2022-12-12T13:38:01.412Z,17.35
2022-12-12T13:40:31.811Z,16.58
2022-12-12T13:43:09.026Z,18.63
2022-12-12T13:45:48.002Z,15.13
2022-12-12T13:48:44.482Z,17.45
2022-12-12T13:51:34.685Z,16.92
2022-12-12T13:54:54.711Z,17.48
2022-12-12T13:57:29.363Z,17.52
2022-12-12T14:00:24.951Z,9.82
2022-12-12T14:03:01.502Z,17.83
2022-12-12T14:05:33.847Z,17.52
2022-12-12T14:08:08.316Z,19.02
2022-12-12T14:10:40.728Z,17.90
2022-12-12T14:13:26.796Z,17.85
2022-12-12T14:16:04.244Z,17.98
2022-12-12T14:18:37.956Z,17.58
2022-12-12T14:21:09.341Z,18.60
2022-12-12T14:23:41.908Z,17.48
2022-12-12T14:26:48.692Z,13.43
2022-12-12T14:29:25.157Z,18.00
2022-12-12T14:32:06.746Z,18.17
2022-12-12T14:34:46.525Z,17.63
2022-12-12T14:37:39.142Z,18.20
2022-12-12T14:40:26.906Z,17.35
2022-12-12T14:43:19.135Z,18.67
2022-12-12T14:48:24.851Z,17.10
2022-12-12T14:51:07.516Z,18.27
2022-12-12T14:56:10.755Z,14.88
2022-12-12T14:58:42.685Z,18.63
2022-12-12T15:01:10.934Z,18.42
2022-12-12T15:03:42.809Z,19.30
2022-12-12T15:06:28.953Z,17.20
2022-12-12T15:08:59.175Z,20.92
2022-12-12T15:11:31.707Z,19.92
2022-12-12T15:14:00.911Z,21.80
2022-12-12T15:16:33.385Z,18.60
2022-12-12T15:19:03.159Z,19.63
2022-12-12T15:21:34.004Z,19.13
2022-12-12T15:24:02.060Z,19.52
2022-12-12T15:26:30.782Z,17.50
2022-12-12T15:28:58.981Z,19.63
2022-12-12T15:31:26.949Z,18.55
2022-12-12T15:33:55.301Z,16.45
2022-12-12T15:36:27.601Z,17.40
2022-12-12T15:39:15.551Z,18.40
2022-12-12T15:41:44.395Z,16.25
2022-12-12T15:44:18.100Z,20.38
2022-12-12T15:46:48.639Z,20.05
2022-12-12T15:49:39.679Z,20.92
2022-12-12T15:52:12.967Z,22.27
2022-12-12T15:54:49.431Z,18.50
2022-12-12T15:57:19.215Z,21.05
2022-12-12T15:59:47.746Z,21.15
2022-12-12T16:02:27.904Z,14.65
2022-12-12T16:05:02.623Z,20.70
2022-12-12T16:07:36.447Z,23.00
2022-12-12T16:10:22.823Z,35.75
2022-12-12T16:12:59.144Z,25.25
2022-12-12T16:15:31.992Z,24.65
2022-12-12T16:18:01.854Z,18.20
2022-12-12T16:20:30.916Z,22.17
2022-12-12T16:23:11.200Z,26.35
2022-12-12T16:25:40.657Z,25.13
2022-12-12T16:28:26.966Z,23.95
2022-12-12T16:30:57.660Z,23.85
2022-12-12T16:33:31.688Z,23.27
2022-12-12T16:36:01.648Z,23.45
2022-12-12T16:38:30.828Z,23.42
2022-12-12T16:41:02.661Z,21.15
2022-12-12T16:43:32.278Z,15.27
2022-12-12T16:46:00.631Z,23.02
2022-12-12T16:48:33.299Z,21.30
2022-12-12T16:51:04.500Z,26.83
2022-12-12T16:53:32.843Z,25.27
2022-12-12T16:56:03.034Z,22.20
2022-12-12T16:58:30.945Z,23.73
2022-12-12T17:01:00.142Z,28.13
2022-12-12T17:03:28.336Z,27.25
2022-12-12T17:05:56.546Z,22.40
2022-12-12T17:08:24.526Z,25.50
2022-12-12T17:11:10.094Z,26.02
2022-12-12T17:13:42.710Z,23.95
2022-12-12T17:16:10.813Z,18.58
2022-12-12T17:18:38.587Z,27.40
2022-12-12T17:21:07.062Z,26.17
2022-12-12T17:23:34.934Z,24.50
2022-12-12T17:26:04.823Z,25.98
2022-12-12T17:28:34.371Z,25.25
2022-12-12T17:31:08.490Z,25.10
2022-12-12T17:33:45.789Z,23.50
2022-12-12T17:36:17.716Z,22.92
2022-12-12T17:38:45.656Z,17.08
2022-12-12T17:41:14.056Z,21.58
2022-12-12T17:43:42.401Z,25.05
2022-12-12T17:46:15.027Z,34.95
2022-12-12T17:51:13.879Z,24.60
2022-12-12T17:53:42.193Z,24.83
2022-12-12T17:56:12.069Z,16.92
2022-12-12T17:58:42.015Z,28.40
2022-12-12T18:01:14.076Z,20.98
2022-12-12T18:03:43.059Z,32.13
2022-12-12T18:06:12.071Z,25.45
2022-12-12T18:08:40.131Z,31.17
2022-12-12T18:11:09.113Z,33.47
2022-12-12T18:13:38.517Z,32.55
2022-12-12T18:16:08.741Z,21.58
2022-12-12T18:18:38.667Z,30.05
2022-12-12T18:21:10.527Z,29.83
2022-12-12T18:23:40.898Z,31.25
2022-12-12T18:26:11.224Z,32.63
2022-12-12T18:28:39.388Z,31.55
2022-12-12T18:31:08.284Z,21.50
2022-12-12T18:33:36.342Z,34.25
2022-12-12T18:36:07.997Z,31.90
2022-12-12T18:38:37.270Z,33.10
2022-12-12T18:41:06.499Z,36.33
2022-12-12T18:43:35.119Z,34.83
2022-12-12T18:46:05.143Z,30.15
2022-12-12T18:48:33.270Z,34.92
2022-12-12T18:51:06.904Z,37.70
2022-12-12T18:53:35.405Z,39.13
2022-12-12T18:56:06.036Z,39.17
2022-12-12T18:58:34.391Z,23.02
2022-12-12T19:01:06.986Z,34.45
2022-12-12T19:03:35.233Z,36.78
2022-12-12T19:06:07.147Z,36.03
2022-12-12T19:08:35.261Z,21.15
2022-12-12T19:11:03.305Z,32.63
2022-12-12T19:13:31.915Z,37.25
2022-12-12T19:16:04.339Z,34.05
2022-12-12T19:18:32.484Z,35.95
2022-12-12T19:21:06.560Z,28.20
2022-12-12T19:23:34.828Z,36.17
2022-12-12T19:26:06.557Z,35.10
2022-12-12T19:28:34.576Z,30.30
2022-12-12T19:31:08.291Z,38.22
2022-12-12T19:33:36.531Z,36.72
2022-12-12T19:36:14.320Z,33.38
2022-12-12T19:38:42.472Z,33.75
2022-12-12T19:41:13.129Z,36.40
2022-12-12T19:43:41.504Z,35.55
2022-12-12T19:46:12.150Z,34.63
2022-12-12T19:48:40.458Z,36.30
2022-12-12T19:51:12.173Z,36.75
2022-12-12T19:53:42.346Z,35.30
2022-12-12T19:56:13.176Z,32.42
2022-12-12T19:58:41.321Z,32.88
2022-12-12T20:01:11.640Z,36.22
2022-12-12T20:03:40.318Z,32.72
2022-12-12T20:06:12.239Z,31.60
2022-12-12T20:08:40.208Z,31.05
2022-12-12T20:11:10.276Z,31.30
2022-12-12T20:13:39.045Z,28.92
2022-12-12T20:16:09.116Z,29.52
2022-12-12T20:18:37.623Z,28.17
2022-12-12T20:21:06.747Z,28.88
2022-12-12T20:23:46.759Z,29.65
2022-12-12T20:26:17.109Z,24.25
2022-12-12T20:28:45.580Z,25.50
2022-12-12T20:31:17.355Z,25.67
2022-12-12T20:33:46.050Z,25.23
2022-12-12T20:36:16.464Z,23.23
2022-12-12T20:38:46.151Z,25.02
2022-12-12T20:41:16.761Z,23.67
2022-12-12T20:43:45.479Z,20.00
2022-12-12T20:46:15.534Z,14.63
2022-12-12T20:48:44.136Z,22.02
2022-12-12T20:51:45.521Z,20.90
2022-12-12T20:54:05.460Z,19.70
2022-12-12T20:56:34.727Z,20.80
2022-12-12T20:59:04.584Z,21.42
2022-12-12T21:01:34.673Z,19.48
2022-12-12T21:04:04.146Z,20.13
2022-12-12T21:06:34.971Z,22.67
2022-12-12T21:09:06.510Z,21.55
2022-12-12T21:11:34.990Z,18.08
2022-12-12T21:14:03.300Z,19.98
2022-12-12T21:16:34.293Z,21.55
2022-12-12T21:19:05.894Z,19.83
2022-12-12T21:21:34.559Z,19.60
2022-12-12T21:24:04.295Z,20.15
2022-12-12T21:26:33.055Z,18.95
2022-12-12T21:29:02.213Z,19.45
2022-12-12T21:31:33.113Z,19.42
2022-12-12T21:34:01.776Z,20.08
2022-12-12T21:36:30.960Z,18.75
2022-12-12T21:39:00.385Z,19.50
2022-12-12T21:41:29.738Z,20.73
2022-12-12T21:43:59.808Z,22.17
2022-12-12T21:46:30.064Z,20.20
2022-12-12T21:49:16.460Z,22.38
2022-12-12T21:51:45.034Z,25.20
2022-12-12T21:54:15.501Z,21.98
2022-12-12T21:56:45.125Z,23.13
2022-12-12T21:59:14.262Z,24.13
2022-12-12T22:01:42.803Z,21.73
2022-12-12T22:04:11.302Z,24.08
2022-12-12T22:06:39.749Z,20.25
2022-12-12T22:09:09.635Z,21.23
2022-12-12T22:11:41.776Z,21.35
2022-12-12T22:14:22.022Z,15.87
2022-12-12T22:16:50.499Z,11.98
2022-12-12T22:19:19.023Z,18.20
2022-12-12T22:21:48.943Z,16.23
2022-12-12T22:24:17.747Z,18.90
2022-12-12T22:26:47.871Z,19.65
2022-12-12T22:29:18.190Z,18.05
2022-12-12T22:31:49.883Z,16.15
2022-12-12T22:34:19.919Z,17.23
2022-12-12T22:36:48.141Z,15.27
2022-12-12T22:39:18.815Z,16.67
2022-12-12T22:41:48.045Z,13.40
2022-12-12T22:44:17.292Z,14.48
2022-12-12T22:46:47.866Z,16.52
2022-12-12T22:49:17.965Z,15.18
2022-12-12T22:51:46.647Z,16.23
2022-12-12T22:54:14.769Z,11.45
2022-12-12T22:56:43.279Z,14.30
2022-12-12T22:59:12.791Z,13.30
2022-12-12T23:01:41.483Z,14.02
2022-12-12T23:04:14.102Z,13.40
2022-12-12T23:06:43.032Z,13.32
2022-12-12T23:09:15.222Z,13.57
2022-12-12T23:14:14.725Z,12.20
2022-12-12T23:16:43.622Z,13.75
2022-12-12T23:19:15.377Z,12.48
2022-12-12T23:21:43.828Z,11.68
2022-12-12T23:24:12.217Z,15.02
2022-12-12T23:26:40.830Z,16.30
2022-12-12T23:29:12.647Z,16.13
2022-12-12T23:31:40.764Z,19.73
2022-12-12T23:34:10.511Z,19.90
2022-12-12T23:36:40.119Z,20.25
2022-12-12T23:39:09.282Z,20.40
2022-12-12T23:41:37.297Z,19.90
2022-12-12T23:44:05.981Z,21.00
2022-12-12T23:46:35.943Z,17.67
2022-12-12T23:49:06.159Z,20.77
2022-12-12T23:51:36.395Z,23.60
2022-12-12T23:54:07.999Z,22.80
2022-12-12T23:56:36.485Z,21.73
2022-12-12T23:59:04.698Z,21.42
